createdAt,value
2023-03-10T00:02:19.549Z,100.00
2023-03-10T00:04:50.539Z,100.00
2023-03-10T00:07:17.592Z,100.00
2023-03-10T00:09:44.378Z,100.00
2023-03-10T00:12:11.175Z,100.00
2023-03-10T00:14:37.814Z,100.00
2023-03-10T00:17:04.413Z,100.00
2023-03-10T00:19:31.026Z,100.00
2023-03-10T00:21:57.574Z,100.00
2023-03-10T00:24:24.625Z,100.00
2023-03-10T00:26:51.208Z,100.00
2023-03-10T00:29:18.353Z,100.00
2023-03-10T00:31:45.185Z,100.00
2023-03-10T00:34:12.630Z,100.00
2023-03-10T00:36:42.860Z,100.00
2023-03-10T00:39:11.889Z,100.00
2023-03-10T00:41:41.614Z,100.00
2023-03-10T00:44:10.074Z,100.00
2023-03-10T00:46:38.828Z,100.00
2023-03-10T00:49:06.531Z,100.00
2023-03-10T00:51:33.457Z,100.00
2023-03-10T00:54:01.546Z,100.00
2023-03-10T00:56:29.101Z,100.00
2023-03-10T00:58:58.652Z,100.00
2023-03-10T01:01:35.029Z,100.00
2023-03-10T01:04:06.359Z,100.00
2023-03-10T01:06:33.844Z,100.00
2023-03-10T01:09:01.934Z,100.00
2023-03-10T01:11:29.520Z,100.00
2023-03-10T01:14:00.707Z,100.00
2023-03-10T01:16:28.475Z,100.00
2023-03-10T01:18:56.123Z,100.00
2023-03-10T01:21:26.179Z,100.00
2023-03-10T01:23:52.722Z,100.00
2023-03-10T01:26:19.836Z,100.00
2023-03-10T01:28:47.807Z,100.00
2023-03-10T01:31:14.705Z,100.00
2023-03-10T01:33:41.663Z,100.00
2023-03-10T01:36:13.179Z,100.00
2023-03-10T01:38:39.934Z,100.00
2023-03-10T01:41:06.851Z,100.00
2023-03-10T01:43:38.804Z,100.00
2023-03-10T01:46:27.212Z,100.00
2023-03-10T01:48:57.113Z,100.00
2023-03-10T01:51:24.476Z,100.00
2023-03-10T01:53:51.964Z,100.00
2023-03-10T01:56:19.060Z,100.00
2023-03-10T01:58:47.193Z,100.00
2023-03-10T02:01:16.226Z,100.00
2023-03-10T02:03:52.152Z,100.00
2023-03-10T02:06:20.557Z,100.00
2023-03-10T02:08:52.150Z,100.00
2023-03-10T02:11:19.971Z,100.00
2023-03-10T02:13:47.181Z,100.00
2023-03-10T02:16:14.616Z,100.00
2023-03-10T02:18:45.617Z,100.00
2023-03-10T02:21:16.701Z,100.00
2023-03-10T02:24:03.401Z,100.00
2023-03-10T02:26:40.785Z,100.00
2023-03-10T02:29:13.826Z,100.00
2023-03-10T02:31:41.539Z,100.00
2023-03-10T02:34:08.586Z,100.00
2023-03-10T02:36:35.102Z,100.00
2023-03-10T02:39:01.597Z,100.00
2023-03-10T02:41:37.108Z,100.00
2023-03-10T02:44:07.838Z,100.00
2023-03-10T02:46:34.557Z,100.00
2023-03-10T02:49:03.643Z,100.00
2023-03-10T02:51:34.725Z,100.00
2023-03-10T02:54:02.698Z,100.00
2023-03-10T02:56:31.064Z,100.00
2023-03-10T02:58:58.176Z,100.00
2023-03-10T03:01:26.401Z,100.00
2023-03-10T03:03:53.832Z,100.00
2023-03-10T03:06:20.375Z,100.00
2023-03-10T03:08:47.132Z,100.00
2023-03-10T03:11:14.138Z,100.00
2023-03-10T03:13:41.027Z,100.00
2023-03-10T03:16:09.618Z,100.00
2023-03-10T03:18:36.542Z,100.00
2023-03-10T03:21:08.259Z,100.00
2023-03-10T03:23:35.327Z,100.00
2023-03-10T03:26:02.084Z,100.00
2023-03-10T03:28:28.629Z,100.00
2023-03-10T03:30:55.244Z,100.00
2023-03-10T03:33:21.745Z,100.00
2023-03-10T03:35:48.317Z,100.00
2023-03-10T03:38:14.890Z,100.00
2023-03-10T03:40:42.036Z,100.00
2023-03-10T03:43:08.532Z,100.00
2023-03-10T03:45:35.051Z,100.00
2023-03-10T03:48:01.790Z,100.00
2023-03-10T03:50:28.528Z,100.00
2023-03-10T03:52:55.398Z,100.00
2023-03-10T03:55:21.966Z,100.00
2023-03-10T03:57:48.599Z,100.00
2023-03-10T04:00:19.403Z,100.00
2023-03-10T04:02:45.962Z,100.00
2023-03-10T04:05:12.707Z,100.00
2023-03-10T04:07:41.378Z,100.00
2023-03-10T04:10:10.534Z,100.00
2023-03-10T04:12:37.620Z,100.00
2023-03-10T04:15:05.012Z,100.00
2023-03-10T04:17:31.564Z,100.00
2023-03-10T04:20:07.051Z,100.00
2023-03-10T04:22:35.698Z,100.00
2023-03-10T04:25:03.851Z,100.00
2023-03-10T04:27:31.542Z,100.00
2023-03-10T04:29:58.409Z,100.00
2023-03-10T04:32:25.043Z,100.00
2023-03-10T04:34:51.876Z,100.00
2023-03-10T04:37:18.492Z,100.00
2023-03-10T04:39:45.137Z,100.00
2023-03-10T04:42:11.633Z,100.00
2023-03-10T04:44:38.132Z,100.00
2023-03-10T04:47:04.744Z,100.00
2023-03-10T04:49:31.233Z,100.00
2023-03-10T04:51:57.844Z,100.00
2023-03-10T04:54:24.318Z,100.00
2023-03-10T04:56:50.830Z,100.00
2023-03-10T04:59:17.903Z,100.00
2023-03-10T05:01:44.410Z,100.00
2023-03-10T05:04:11.053Z,100.00
2023-03-10T05:06:37.656Z,100.00
2023-03-10T05:09:05.276Z,100.00
2023-03-10T05:11:32.280Z,100.00
2023-03-10T05:13:58.972Z,100.00
2023-03-10T05:16:25.514Z,100.00
2023-03-10T05:18:52.885Z,100.00
2023-03-10T05:21:21.664Z,100.00
2023-03-10T05:23:48.668Z,100.00
2023-03-10T05:26:15.887Z,100.00
2023-03-10T05:28:42.419Z,100.00
2023-03-10T05:31:11.955Z,100.00
2023-03-10T05:33:38.830Z,100.00
2023-03-10T05:36:09.824Z,100.00
2023-03-10T05:38:37.812Z,100.00
2023-03-10T05:41:09.502Z,100.00
2023-03-10T05:43:36.572Z,100.00
2023-03-10T05:46:03.664Z,100.00
2023-03-10T05:48:30.449Z,100.00
2023-03-10T05:51:05.747Z,100.00
2023-03-10T05:53:34.319Z,100.00
2023-03-10T05:56:05.701Z,100.00
2023-03-10T05:58:32.289Z,100.00
2023-03-10T06:00:58.854Z,100.00
2023-03-10T06:03:25.832Z,100.00
2023-03-10T06:05:52.450Z,100.00
2023-03-10T06:08:19.205Z,100.00
2023-03-10T06:10:45.736Z,100.00
2023-03-10T06:13:12.283Z,100.00
2023-03-10T06:15:38.949Z,100.00
2023-03-10T06:18:05.491Z,100.00
2023-03-10T06:20:32.135Z,100.00
2023-03-10T06:22:58.641Z,100.00
2023-03-10T06:25:25.301Z,100.00
2023-03-10T06:27:51.840Z,100.00
2023-03-10T06:30:18.450Z,100.00
2023-03-10T06:32:45.654Z,100.00
2023-03-10T06:35:14.994Z,100.00
2023-03-10T06:37:41.802Z,100.00
2023-03-10T06:40:12.967Z,100.00
2023-03-10T06:42:43.735Z,100.00
2023-03-10T06:45:14.250Z,100.00
2023-03-10T06:47:40.820Z,100.00
2023-03-10T06:50:08.659Z,100.00
2023-03-10T06:52:35.429Z,100.00
2023-03-10T06:55:02.481Z,100.00
2023-03-10T06:57:29.227Z,100.00
2023-03-10T06:59:55.800Z,100.00
2023-03-10T07:02:22.346Z,100.00
2023-03-10T07:04:49.172Z,100.00
2023-03-10T07:07:15.749Z,100.00
2023-03-10T07:09:42.249Z,100.00
2023-03-10T07:12:08.931Z,100.00
2023-03-10T07:14:35.556Z,100.00
2023-03-10T07:17:03.513Z,100.00
2023-03-10T07:19:30.022Z,100.00
2023-03-10T07:21:56.984Z,100.00
2023-03-10T07:24:23.500Z,100.00
2023-03-10T07:26:50.341Z,100.00
2023-03-10T07:29:16.973Z,100.00
2023-03-10T07:31:45.189Z,100.00
2023-03-10T07:34:11.976Z,100.00
2023-03-10T07:36:38.457Z,100.00
2023-03-10T07:39:04.960Z,100.00
2023-03-10T07:41:31.413Z,100.00
2023-03-10T07:43:57.933Z,100.00
2023-03-10T07:46:24.589Z,100.00
2023-03-10T07:48:52.781Z,100.00
2023-03-10T07:51:20.157Z,100.00
2023-03-10T07:53:46.768Z,100.00
2023-03-10T07:56:14.613Z,100.00
2023-03-10T07:58:41.672Z,100.00
2023-03-10T08:01:08.997Z,100.00
2023-03-10T08:03:35.957Z,100.00
2023-03-10T08:06:05.592Z,100.00
2023-03-10T08:08:32.716Z,100.00
2023-03-10T08:11:04.892Z,100.00
2023-03-10T08:13:32.145Z,100.00
2023-03-10T08:16:02.887Z,100.00
2023-03-10T08:18:30.853Z,100.00
2023-03-10T08:20:57.840Z,100.00
2023-03-10T08:23:25.566Z,100.00
2023-03-10T08:25:52.369Z,100.00
2023-03-10T08:28:18.860Z,100.00
2023-03-10T08:31:01.133Z,100.00
2023-03-10T08:33:30.799Z,100.00
2023-03-10T08:36:21.719Z,100.00
2023-03-10T08:38:50.262Z,100.00
2023-03-10T08:41:20.999Z,100.00
2023-03-10T08:43:49.486Z,100.00
2023-03-10T08:46:17.679Z,100.00
2023-03-10T08:48:44.284Z,100.00
2023-03-10T08:51:15.120Z,100.00
2023-03-10T08:53:43.105Z,100.00
2023-03-10T08:56:09.820Z,100.00
2023-03-10T08:58:36.423Z,100.00
2023-03-10T09:01:03.131Z,100.00
2023-03-10T09:03:31.811Z,100.00
2023-03-10T09:05:58.645Z,100.00
2023-03-10T09:08:27.434Z,100.00
2023-03-10T09:10:55.022Z,100.00
2023-03-10T09:13:22.211Z,100.00
2023-03-10T09:15:52.890Z,100.00
2023-03-10T09:18:20.563Z,100.00
2023-03-10T09:20:47.637Z,100.00
2023-03-10T09:23:15.540Z,100.00
2023-03-10T09:25:42.579Z,100.00
2023-03-10T09:28:10.818Z,100.00
2023-03-10T09:30:39.840Z,100.00
2023-03-10T09:33:16.959Z,100.00
2023-03-10T09:35:52.355Z,100.00
2023-03-10T09:38:19.564Z,100.00
2023-03-10T09:40:50.727Z,100.00
2023-03-10T09:43:21.002Z,99.69
2023-03-10T09:46:28.868Z,99.18
2023-03-10T09:49:21.652Z,98.58
2023-03-10T09:51:50.034Z,98.20
2023-03-10T09:54:22.462Z,97.97
2023-03-10T09:56:49.076Z,97.72
2023-03-10T09:59:22.078Z,97.95
2023-03-10T10:01:50.809Z,96.28
2023-03-10T10:04:39.695Z,96.38
2023-03-10T10:07:15.430Z,94.32
2023-03-10T10:09:58.691Z,94.11
2023-03-10T10:12:26.131Z,93.46
2023-03-10T10:15:07.384Z,92.59
2023-03-10T10:18:16.180Z,92.32
2023-03-10T10:20:59.235Z,92.33
2023-03-10T10:23:46.406Z,92.02
2023-03-10T10:26:19.580Z,92.28
2023-03-10T10:28:53.899Z,91.80
2023-03-10T10:31:23.737Z,91.24
2023-03-10T10:34:00.723Z,90.87
2023-03-10T10:36:48.375Z,91.26
2023-03-10T10:39:31.517Z,90.28
2023-03-10T10:42:24.608Z,88.75
2023-03-10T10:44:56.939Z,87.91
2023-03-10T10:47:33.947Z,87.97
2023-03-10T10:50:23.101Z,87.61
2023-03-10T10:53:16.711Z,87.82
2023-03-10T10:55:45.537Z,87.38
2023-03-10T10:58:32.681Z,87.29
2023-03-10T11:01:06.012Z,87.25
2023-03-10T11:03:34.702Z,87.50
2023-03-10T11:06:02.968Z,86.95
2023-03-10T11:08:32.923Z,86.93
2023-03-10T11:11:06.768Z,88.17
2023-03-10T11:13:59.490Z,87.15
2023-03-10T11:16:35.472Z,87.56
2023-03-10T11:19:05.887Z,87.70
2023-03-10T11:21:37.746Z,86.78
2023-03-10T11:24:24.555Z,85.08
2023-03-10T11:27:15.139Z,85.76
2023-03-10T11:30:02.456Z,87.20
2023-03-10T11:32:42.477Z,86.91
2023-03-10T11:35:19.459Z,88.60
2023-03-10T11:38:02.416Z,89.72
2023-03-10T11:40:57.885Z,90.85
2023-03-10T11:43:52.482Z,91.44
2023-03-10T11:46:41.162Z,93.97
2023-03-10T11:49:14.223Z,93.71
2023-03-10T11:52:00.747Z,93.42
2023-03-10T11:54:33.921Z,93.90
2023-03-10T11:57:04.386Z,94.17
2023-03-10T11:59:36.468Z,95.23
2023-03-10T12:02:51.541Z,96.77
2023-03-10T12:05:22.982Z,97.38
2023-03-10T12:07:53.047Z,97.32
2023-03-10T12:10:22.016Z,98.80
2023-03-10T12:12:50.916Z,99.51
2023-03-10T12:15:20.163Z,99.29
2023-03-10T12:17:49.403Z,100.00
2023-03-10T12:20:18.819Z,100.00
2023-03-10T12:22:53.606Z,99.96
2023-03-10T12:25:32.434Z,100.00
2023-03-10T12:28:17.925Z,100.00
2023-03-10T12:30:54.533Z,100.00
2023-03-10T12:33:42.568Z,100.00
2023-03-10T12:36:33.312Z,100.00
2023-03-10T12:39:22.115Z,100.00
2023-03-10T12:42:00.811Z,100.00
2023-03-10T12:44:47.780Z,100.00
2023-03-10T12:47:22.200Z,100.00
2023-03-10T12:49:55.869Z,100.00
2023-03-10T12:52:22.548Z,100.00
2023-03-10T12:54:52.684Z,100.00
2023-03-10T12:57:27.941Z,100.00
2023-03-10T13:00:10.998Z,100.00
2023-03-10T13:02:56.979Z,100.00
2023-03-10T13:05:46.531Z,100.00
2023-03-10T13:08:24.835Z,100.00
2023-03-10T13:10:56.241Z,100.00
2023-03-10T13:13:29.618Z,100.00
2023-03-10T13:16:01.781Z,100.00
2023-03-10T13:18:29.319Z,100.00
2023-03-10T13:21:01.585Z,100.00
2023-03-10T13:23:37.264Z,100.00
2023-03-10T13:26:09.994Z,100.00
2023-03-10T13:28:37.497Z,100.00
2023-03-10T13:31:19.802Z,100.00
2023-03-10T13:33:53.391Z,100.00
2023-03-10T13:36:33.982Z,100.00
2023-03-10T13:39:17.010Z,100.00
2023-03-10T13:41:46.963Z,100.00
2023-03-10T13:44:26.948Z,100.00
2023-03-10T13:47:01.207Z,100.00
2023-03-10T13:49:32.076Z,100.00
2023-03-10T13:52:04.075Z,100.00
2023-03-10T13:54:35.024Z,100.00
2023-03-10T13:57:07.417Z,100.00
2023-03-10T13:59:36.302Z,100.00
2023-03-10T14:02:03.775Z,100.00
2023-03-10T14:04:52.110Z,100.00
2023-03-10T14:07:27.728Z,100.00
2023-03-10T14:10:06.376Z,100.00
2023-03-10T14:12:53.730Z,100.00
2023-03-10T14:15:20.425Z,100.00
2023-03-10T14:17:49.947Z,100.00
2023-03-10T14:20:32.464Z,100.00
2023-03-10T14:23:00.046Z,100.00
2023-03-10T14:25:26.906Z,100.00
2023-03-10T14:28:05.407Z,100.00
2023-03-10T14:30:33.741Z,100.00
2023-03-10T14:33:01.606Z,100.00
2023-03-10T14:35:30.109Z,100.00
2023-03-10T14:37:56.664Z,100.00
2023-03-10T14:40:24.905Z,100.00
2023-03-10T14:42:53.332Z,100.00
2023-03-10T14:45:36.443Z,100.00
2023-03-10T14:48:12.406Z,100.00
2023-03-10T14:50:39.145Z,100.00
2023-03-10T14:53:13.669Z,100.00
2023-03-10T14:55:42.123Z,100.00
2023-03-10T14:58:12.426Z,99.99
2023-03-10T15:00:38.978Z,100.00
2023-03-10T15:03:06.450Z,100.00
2023-03-10T15:05:47.243Z,100.00
2023-03-10T15:08:14.636Z,100.00
2023-03-10T15:10:43.109Z,100.00
2023-03-10T15:13:15.650Z,100.00
2023-03-10T15:15:47.214Z,100.00
2023-03-10T15:18:17.512Z,100.00
2023-03-10T15:20:44.719Z,100.00
2023-03-10T15:23:16.502Z,100.00
2023-03-10T15:25:48.618Z,99.45
2023-03-10T15:28:15.730Z,99.37
2023-03-10T15:30:47.092Z,99.57
2023-03-10T15:33:14.303Z,99.57
2023-03-10T15:35:41.755Z,99.18
2023-03-10T15:38:29.405Z,99.10
2023-03-10T15:40:57.878Z,99.10
2023-03-10T15:43:24.738Z,99.39
2023-03-10T15:45:51.416Z,99.22
2023-03-10T15:48:21.195Z,99.47
2023-03-10T15:50:47.733Z,99.60
2023-03-10T15:53:15.123Z,99.91
2023-03-10T15:55:43.003Z,100.00
2023-03-10T15:58:11.240Z,100.00
2023-03-10T16:00:38.096Z,96.21
2023-03-10T16:03:07.441Z,93.65
2023-03-10T16:05:35.050Z,91.58
2023-03-10T16:08:06.151Z,93.01
2023-03-10T16:10:36.200Z,95.41
2023-03-10T16:13:02.704Z,92.35
2023-03-10T16:15:29.198Z,91.80
2023-03-10T16:17:55.897Z,92.29
2023-03-10T16:20:22.374Z,92.35
2023-03-10T16:22:48.950Z,91.15
2023-03-10T16:25:17.750Z,91.16
2023-03-10T16:27:46.004Z,92.57
2023-03-10T16:30:14.779Z,91.02
2023-03-10T16:32:48.249Z,91.45
2023-03-10T16:35:15.428Z,89.61
2023-03-10T16:37:42.782Z,91.63
2023-03-10T16:40:10.250Z,89.48
2023-03-10T16:42:36.844Z,90.17
2023-03-10T16:45:05.462Z,90.16
2023-03-10T16:47:32.983Z,91.00
2023-03-10T16:49:59.611Z,90.58
2023-03-10T16:52:26.116Z,90.24
2023-03-10T16:54:57.676Z,91.75
2023-03-10T16:57:24.394Z,91.07
2023-03-10T16:59:50.934Z,90.36
2023-03-10T17:02:17.495Z,91.65
2023-03-10T17:04:45.480Z,91.49
2023-03-10T17:07:17.349Z,92.08
2023-03-10T17:09:45.828Z,93.00
2023-03-10T17:12:12.346Z,92.29
2023-03-10T17:14:38.900Z,92.72
2023-03-10T17:17:07.764Z,93.28
2023-03-10T17:19:34.573Z,93.12
2023-03-10T17:22:01.231Z,92.38
2023-03-10T17:24:29.155Z,93.68
2023-03-10T17:26:55.721Z,92.88
2023-03-10T17:29:22.296Z,93.41
2023-03-10T17:31:50.647Z,92.71
2023-03-10T17:34:18.723Z,92.84
2023-03-10T17:36:45.298Z,92.63
2023-03-10T17:39:18.243Z,92.68
2023-03-10T17:41:45.641Z,92.84
2023-03-10T17:44:12.187Z,92.54
2023-03-10T17:46:41.069Z,93.30
2023-03-10T17:49:09.581Z,93.05
2023-03-10T17:51:36.386Z,92.77
2023-03-10T17:54:03.251Z,92.90
2023-03-10T17:56:30.340Z,92.40
2023-03-10T17:58:57.622Z,93.41
2023-03-10T18:01:27.395Z,92.96
2023-03-10T18:03:59.224Z,92.42
2023-03-10T18:06:31.667Z,92.14
2023-03-10T18:09:00.691Z,91.99
2023-03-10T18:11:32.461Z,91.28
2023-03-10T18:14:01.780Z,91.60
2023-03-10T18:16:33.932Z,91.23
2023-03-10T18:19:01.494Z,91.43
2023-03-10T18:21:28.773Z,91.07
2023-03-10T18:23:57.718Z,91.79
2023-03-10T18:26:30.558Z,91.35
2023-03-10T18:28:58.264Z,91.83
2023-03-10T18:31:33.094Z,90.97
2023-03-10T18:34:00.670Z,92.38
2023-03-10T18:36:29.417Z,89.98
2023-03-10T18:38:56.927Z,90.56
2023-03-10T18:41:26.768Z,91.12
2023-03-10T18:43:53.631Z,90.53
2023-03-10T18:46:23.537Z,89.42
2023-03-10T18:48:55.580Z,89.75
2023-03-10T18:51:24.484Z,89.76
2023-03-10T18:53:51.169Z,90.08
2023-03-10T18:56:18.623Z,90.07
2023-03-10T18:58:45.575Z,89.25
2023-03-10T19:01:14.027Z,89.78
2023-03-10T19:03:41.657Z,89.82
2023-03-10T19:06:08.363Z,88.49
2023-03-10T19:08:36.805Z,88.17
2023-03-10T19:11:03.789Z,88.74
2023-03-10T19:13:32.781Z,87.55
2023-03-10T19:15:59.463Z,87.84
2023-03-10T19:18:26.179Z,87.11
2023-03-10T19:20:59.064Z,87.54
2023-03-10T19:23:26.265Z,86.69
2023-03-10T19:25:52.854Z,87.14
2023-03-10T19:28:19.551Z,87.07
2023-03-10T19:30:46.161Z,87.23
2023-03-10T19:33:12.630Z,86.13
2023-03-10T19:35:39.223Z,86.73
2023-03-10T19:38:05.824Z,86.51
2023-03-10T19:40:32.582Z,87.57
2023-03-10T19:42:59.325Z,86.63
2023-03-10T19:45:25.882Z,87.91
2023-03-10T19:47:52.640Z,87.03
2023-03-10T19:50:19.584Z,86.08
2023-03-10T19:52:49.960Z,86.78
2023-03-10T19:55:19.895Z,86.48
2023-03-10T19:57:48.660Z,87.69
2023-03-10T20:00:18.885Z,87.55
2023-03-10T20:02:45.762Z,88.15
2023-03-10T20:05:14.528Z,87.85
2023-03-10T20:07:42.318Z,88.47
2023-03-10T20:10:09.613Z,87.52
2023-03-10T20:12:36.741Z,87.92
2023-03-10T20:15:04.170Z,87.69
2023-03-10T20:17:30.845Z,88.07
2023-03-10T20:19:57.510Z,87.85
2023-03-10T20:22:24.400Z,87.60
2023-03-10T20:24:51.006Z,87.55
2023-03-10T20:27:17.643Z,88.20
2023-03-10T20:29:44.194Z,88.31
2023-03-10T20:32:10.753Z,88.17
2023-03-10T20:34:37.431Z,87.87
2023-03-10T20:37:03.927Z,88.13
2023-03-10T20:39:30.426Z,88.12
2023-03-10T20:41:59.285Z,88.00
2023-03-10T20:44:25.854Z,88.05
2023-03-10T20:46:52.418Z,89.72
2023-03-10T20:49:19.180Z,87.58
2023-03-10T20:51:45.709Z,87.27
2023-03-10T20:54:12.262Z,86.13
2023-03-10T20:56:38.747Z,86.13
2023-03-10T20:59:05.296Z,86.00
2023-03-10T21:01:32.052Z,85.91
2023-03-10T21:03:58.952Z,86.69
2023-03-10T21:06:27.049Z,86.36
2023-03-10T21:08:53.601Z,87.30
2023-03-10T21:11:20.828Z,87.10
2023-03-10T21:13:47.836Z,87.16
2023-03-10T21:16:14.586Z,87.95
2023-03-10T21:18:41.154Z,86.95
2023-03-10T21:21:09.841Z,86.72
2023-03-10T21:23:37.879Z,87.88
2023-03-10T21:26:20.040Z,87.50
2023-03-10T21:28:46.770Z,87.43
2023-03-10T21:31:14.317Z,87.91
2023-03-10T21:33:44.006Z,87.23
2023-03-10T21:36:20.537Z,87.45
2023-03-10T21:38:51.056Z,87.65
2023-03-10T21:41:21.628Z,87.37
2023-03-10T21:43:48.212Z,87.00
2023-03-10T21:46:15.017Z,86.65
2023-03-10T21:48:42.182Z,86.46
2023-03-10T21:51:13.638Z,86.47
2023-03-10T21:53:41.246Z,86.91
2023-03-10T21:56:08.224Z,85.86
2023-03-10T21:58:35.259Z,87.00
2023-03-10T22:01:03.096Z,86.71
2023-03-10T22:03:29.628Z,86.90
2023-03-10T22:05:56.374Z,86.21
2023-03-10T22:08:22.999Z,86.18
2023-03-10T22:10:49.580Z,86.76
2023-03-10T22:13:16.208Z,86.18
2023-03-10T22:15:42.884Z,86.57
2023-03-10T22:18:09.546Z,86.67
2023-03-10T22:20:36.092Z,86.67
2023-03-10T22:23:02.708Z,86.61
2023-03-10T22:25:29.255Z,85.71
2023-03-10T22:27:58.221Z,86.30
2023-03-10T22:30:26.144Z,85.97
2023-03-10T22:32:53.398Z,85.76
2023-03-10T22:35:20.595Z,85.37
2023-03-10T22:37:47.348Z,85.21
2023-03-10T22:40:17.374Z,84.76
2023-03-10T22:42:44.977Z,85.34
2023-03-10T22:45:23.338Z,85.25
2023-03-10T22:47:53.483Z,85.75
2023-03-10T22:50:25.805Z,85.34
2023-03-10T22:52:52.461Z,85.96
2023-03-10T22:55:23.749Z,85.39
2023-03-10T22:57:50.970Z,85.11
2023-03-10T23:00:20.406Z,85.67
2023-03-10T23:02:48.791Z,83.83
2023-03-10T23:05:18.712Z,83.30
2023-03-10T23:07:45.779Z,83.82
2023-03-10T23:10:25.771Z,83.93
2023-03-10T23:12:53.285Z,84.19
2023-03-10T23:15:25.560Z,85.13
2023-03-10T23:17:56.829Z,84.60
2023-03-10T23:20:27.472Z,84.83
2023-03-10T23:22:55.709Z,85.09
2023-03-10T23:25:24.109Z,85.55
2023-03-10T23:27:51.231Z,85.70
2023-03-10T23:30:18.738Z,85.91
2023-03-10T23:32:47.557Z,86.45
2023-03-10T23:35:16.792Z,86.80
2023-03-10T23:37:43.344Z,86.50
2023-03-10T23:40:13.598Z,86.95
2023-03-10T23:42:41.506Z,87.43
2023-03-10T23:45:12.022Z,86.58
2023-03-10T23:47:39.476Z,86.55
2023-03-10T23:50:08.387Z,86.91
2023-03-10T23:52:35.895Z,86.93
2023-03-10T23:55:02.878Z,87.09
2023-03-10T23:57:29.365Z,87.04
2023-03-10T23:59:55.959Z,86.21
